Pagrindinis puslapis
METAR-TAF:

METAR-TAF

Oro uostai :

Yamagata, Japonija

platuma: 38-25N, ilguma: 140-22E, Aukštis: 105 m

Dabartinis oras

Ataskaita buvo paskelbta 2 valandos ir 30 minutes, ne 10:00 UTC
Vėjas 5 kt iš Šiaurės/Šiaurės Rytų
Temperatūra 1°C
Drėgmė 75%
Slėgis 1027 hPa
Matomumas 10 km arba daugiau
Mažai debesys ne aukštis 5000 ft
Išsisklaidę debesys ne aukštis 7000 ft

METAR: RJSC 261000Z 03005KT 9999 FEW050 SCT070 01/M03 Q1027

Laikas: 21:30 (12:30 UTC)


TAF: trūkstamas

Orai ataskaitas ir orų prognozės (METAR, TAF).

turimą stotys yra geltonos ir raudonos taškus žemėlapyje.

Perkelti pele per norėdami pamatyti stoties vardą.

Tada spustelėkite, norėdami matyti oro stebėjimo ir prognozės.

Norėdami pakeisti žemėlapį: spustelėkite ant žalios mygtukų su juodo kryžiaus žemyn,; žalią mygtuką su brūkšneliu, jei norite nutolinti; arba žalių rodyklių gretimoms žemėlapius.


METAR-TAF: